sensor_id;sensor_type;location;lat;lon;timestamp;P1;durP1;ratioP1;P2;durP2;ratioP2
38111;SDS011;64011;56.312;44.048;2024-01-30T00:01:48;32.47;;;15.35;;
38111;SDS011;64011;56.312;44.048;2024-01-30T00:03:49;35.67;;;16.20;;
38111;SDS011;64011;56.312;44.048;2024-01-30T00:05:50;33.00;;;15.15;;
38111;SDS011;64011;56.312;44.048;2024-01-30T00:07:51;33.72;;;14.15;;
38111;SDS011;64011;56.312;44.048;2024-01-30T00:09:52;29.67;;;12.63;;
38111;SDS011;64011;56.312;44.048;2024-01-30T00:11:54;37.38;;;16.48;;
38111;SDS011;64011;56.312;44.048;2024-01-30T00:13:55;35.53;;;15.95;;
38111;SDS011;64011;56.312;44.048;2024-01-30T00:15:55;34.58;;;15.68;;
38111;SDS011;64011;56.312;44.048;2024-01-30T00:17:56;30.50;;;13.52;;
38111;SDS011;64011;56.312;44.048;2024-01-30T00:19:57;29.13;;;12.35;;
38111;SDS011;64011;56.312;44.048;2024-01-30T00:21:58;30.75;;;13.30;;
38111;SDS011;64011;56.312;44.048;2024-01-30T00:23:59;37.33;;;16.35;;
38111;SDS011;64011;56.312;44.048;2024-01-30T00:25:59;31.23;;;14.20;;
38111;SDS011;64011;56.312;44.048;2024-01-30T00:28:02;30.02;;;12.23;;
38111;SDS011;64011;56.312;44.048;2024-01-30T00:30:03;36.33;;;16.58;;
38111;SDS011;64011;56.312;44.048;2024-01-30T00:32:06;32.33;;;15.13;;
38111;SDS011;64011;56.312;44.048;2024-01-30T00:34:07;37.22;;;16.17;;
38111;SDS011;64011;56.312;44.048;2024-01-30T00:36:08;33.88;;;14.80;;
38111;SDS011;64011;56.312;44.048;2024-01-30T00:38:10;32.53;;;14.68;;
38111;SDS011;64011;56.312;44.048;2024-01-30T00:40:10;33.25;;;14.02;;
38111;SDS011;64011;56.312;44.048;2024-01-30T00:42:11;38.13;;;17.65;;
38111;SDS011;64011;56.312;44.048;2024-01-30T00:44:14;32.95;;;14.65;;
38111;SDS011;64011;56.312;44.048;2024-01-30T00:46:14;35.53;;;15.38;;
38111;SDS011;64011;56.312;44.048;2024-01-30T00:48:15;35.08;;;17.05;;
38111;SDS011;64011;56.312;44.048;2024-01-30T00:50:16;33.95;;;14.82;;
38111;SDS011;64011;56.312;44.048;2024-01-30T00:52:17;33.58;;;14.82;;
38111;SDS011;64011;56.312;44.048;2024-01-30T00:54:17;35.97;;;16.10;;
38111;SDS011;64011;56.312;44.048;2024-01-30T00:56:18;32.85;;;14.85;;
38111;SDS011;64011;56.312;44.048;2024-01-30T00:58:19;30.63;;;13.27;;
38111;SDS011;64011;56.312;44.048;2024-01-30T01:02:31;34.33;;;14.55;;
38111;SDS011;64011;56.312;44.048;2024-01-30T01:04:32;37.78;;;17.15;;
38111;SDS011;64011;56.312;44.048;2024-01-30T01:06:33;32.85;;;12.82;;
38111;SDS011;64011;56.312;44.048;2024-01-30T01:08:34;35.45;;;14.63;;
38111;SDS011;64011;56.312;44.048;2024-01-30T01:10:34;36.60;;;16.33;;
38111;SDS011;64011;56.312;44.048;2024-01-30T01:12:35;33.53;;;14.82;;
38111;SDS011;64011;56.312;44.048;2024-01-30T01:14:36;27.23;;;12.60;;
38111;SDS011;64011;56.312;44.048;2024-01-30T01:16:37;32.40;;;14.32;;
38111;SDS011;64011;56.312;44.048;2024-01-30T01:18:39;37.42;;;16.42;;
38111;SDS011;64011;56.312;44.048;2024-01-30T01:20:40;35.20;;;15.68;;
38111;SDS011;64011;56.312;44.048;2024-01-30T01:22:41;29.75;;;11.63;;
38111;SDS011;64011;56.312;44.048;2024-01-30T01:24:42;29.92;;;12.57;;
38111;SDS011;64011;56.312;44.048;2024-01-30T01:26:43;28.17;;;11.50;;
38111;SDS011;64011;56.312;44.048;2024-01-30T01:28:44;35.45;;;14.55;;
38111;SDS011;64011;56.312;44.048;2024-01-30T01:30:44;32.50;;;14.98;;
38111;SDS011;64011;56.312;44.048;2024-01-30T01:32:45;28.52;;;12.27;;
38111;SDS011;64011;56.312;44.048;2024-01-30T01:34:48;31.65;;;15.02;;
38111;SDS011;64011;56.312;44.048;2024-01-30T01:36:48;29.92;;;13.20;;
38111;SDS011;64011;56.312;44.048;2024-01-30T01:38:49;26.20;;;11.25;;
38111;SDS011;64011;56.312;44.048;2024-01-30T01:40:50;33.45;;;14.90;;
38111;SDS011;64011;56.312;44.048;2024-01-30T01:42:51;32.38;;;15.18;;
38111;SDS011;64011;56.312;44.048;2024-01-30T01:44:52;32.58;;;15.65;;
38111;SDS011;64011;56.312;44.048;2024-01-30T01:46:53;31.15;;;13.23;;
38111;SDS011;64011;56.312;44.048;2024-01-30T01:48:54;35.15;;;16.60;;
38111;SDS011;64011;56.312;44.048;2024-01-30T01:50:57;32.03;;;15.05;;
38111;SDS011;64011;56.312;44.048;2024-01-30T01:52:58;30.58;;;13.05;;
38111;SDS011;64011;56.312;44.048;2024-01-30T01:54:59;34.50;;;14.15;;
38111;SDS011;64011;56.312;44.048;2024-01-30T01:57:00;31.75;;;14.07;;
38111;SDS011;64011;56.312;44.048;2024-01-30T01:59:04;29.25;;;13.93;;
38111;SDS011;64011;56.312;44.048;2024-01-30T02:01:05;28.67;;;13.25;;
38111;SDS011;64011;56.312;44.048;2024-01-30T02:03:06;29.95;;;13.85;;
38111;SDS011;64011;56.312;44.048;2024-01-30T02:05:08;32.03;;;13.98;;
38111;SDS011;64011;56.312;44.048;2024-01-30T02:07:11;31.13;;;14.00;;
38111;SDS011;64011;56.312;44.048;2024-01-30T02:09:12;29.50;;;14.07;;
38111;SDS011;64011;56.312;44.048;2024-01-30T02:11:12;28.20;;;13.40;;
38111;SDS011;64011;56.312;44.048;2024-01-30T02:13:13;26.35;;;11.95;;
38111;SDS011;64011;56.312;44.048;2024-01-30T02:15:15;34.65;;;15.38;;
38111;SDS011;64011;56.312;44.048;2024-01-30T02:17:17;34.33;;;13.40;;
38111;SDS011;64011;56.312;44.048;2024-01-30T02:19:18;31.20;;;13.73;;
38111;SDS011;64011;56.312;44.048;2024-01-30T02:21:20;33.47;;;15.07;;
38111;SDS011;64011;56.312;44.048;2024-01-30T02:23:21;34.90;;;15.40;;
38111;SDS011;64011;56.312;44.048;2024-01-30T02:25:30;34.17;;;15.90;;
38111;SDS011;64011;56.312;44.048;2024-01-30T02:27:31;33.65;;;14.02;;
38111;SDS011;64011;56.312;44.048;2024-01-30T02:29:32;29.38;;;13.32;;
38111;SDS011;64011;56.312;44.048;2024-01-30T02:31:33;30.05;;;13.20;;
38111;SDS011;64011;56.312;44.048;2024-01-30T02:33:33;33.22;;;15.02;;
38111;SDS011;64011;56.312;44.048;2024-01-30T02:35:34;25.23;;;10.10;;
38111;SDS011;64011;56.312;44.048;2024-01-30T02:37:36;30.02;;;14.15;;
38111;SDS011;64011;56.312;44.048;2024-01-30T02:39:37;32.63;;;15.00;;
38111;SDS011;64011;56.312;44.048;2024-01-30T02:41:38;37.03;;;15.60;;
38111;SDS011;64011;56.312;44.048;2024-01-30T02:43:39;33.53;;;15.57;;
38111;SDS011;64011;56.312;44.048;2024-01-30T02:45:41;31.00;;;14.60;;
38111;SDS011;64011;56.312;44.048;2024-01-30T02:47:42;33.00;;;14.90;;
38111;SDS011;64011;56.312;44.048;2024-01-30T02:49:43;30.73;;;13.35;;
38111;SDS011;64011;56.312;44.048;2024-01-30T02:51:44;37.92;;;16.63;;
38111;SDS011;64011;56.312;44.048;2024-01-30T02:53:46;29.85;;;13.85;;
38111;SDS011;64011;56.312;44.048;2024-01-30T02:55:47;33.13;;;15.93;;
38111;SDS011;64011;56.312;44.048;2024-01-30T02:57:48;34.22;;;16.02;;
38111;SDS011;64011;56.312;44.048;2024-01-30T02:59:48;35.50;;;15.90;;
38111;SDS011;64011;56.312;44.048;2024-01-30T03:01:49;33.38;;;15.45;;
38111;SDS011;64011;56.312;44.048;2024-01-30T03:03:50;33.60;;;15.65;;
38111;SDS011;64011;56.312;44.048;2024-01-30T03:05:51;30.05;;;13.20;;
38111;SDS011;64011;56.312;44.048;2024-01-30T03:07:52;32.42;;;15.30;;
38111;SDS011;64011;56.312;44.048;2024-01-30T03:09:54;27.73;;;11.07;;
38111;SDS011;64011;56.312;44.048;2024-01-30T03:11:55;32.15;;;16.33;;
38111;SDS011;64011;56.312;44.048;2024-01-30T03:13:57;32.60;;;15.13;;
38111;SDS011;64011;56.312;44.048;2024-01-30T03:15:58;24.67;;;10.75;;
38111;SDS011;64011;56.312;44.048;2024-01-30T03:17:59;30.52;;;12.55;;
38111;SDS011;64011;56.312;44.048;2024-01-30T03:20:00;33.88;;;15.65;;
38111;SDS011;64011;56.312;44.048;2024-01-30T03:22:01;26.50;;;12.02;;
38111;SDS011;64011;56.312;44.048;2024-01-30T03:24:01;30.92;;;11.82;;
38111;SDS011;64011;56.312;44.048;2024-01-30T03:26:04;30.85;;;13.77;;
38111;SDS011;64011;56.312;44.048;2024-01-30T03:28:05;29.67;;;13.05;;
38111;SDS011;64011;56.312;44.048;2024-01-30T03:30:06;28.67;;;13.93;;
38111;SDS011;64011;56.312;44.048;2024-01-30T03:32:08;34.88;;;15.75;;
38111;SDS011;64011;56.312;44.048;2024-01-30T03:34:09;35.60;;;15.85;;
38111;SDS011;64011;56.312;44.048;2024-01-30T03:36:10;32.45;;;13.45;;
38111;SDS011;64011;56.312;44.048;2024-01-30T03:38:11;32.30;;;16.17;;
38111;SDS011;64011;56.312;44.048;2024-01-30T03:40:12;34.53;;;15.95;;
38111;SDS011;64011;56.312;44.048;2024-01-30T03:42:15;32.42;;;15.75;;
38111;SDS011;64011;56.312;44.048;2024-01-30T03:44:15;33.03;;;14.38;;
38111;SDS011;64011;56.312;44.048;2024-01-30T03:46:16;35.75;;;16.50;;
38111;SDS011;64011;56.312;44.048;2024-01-30T03:48:17;35.85;;;16.58;;
38111;SDS011;64011;56.312;44.048;2024-01-30T03:50:18;33.80;;;16.65;;
38111;SDS011;64011;56.312;44.048;2024-01-30T03:52:19;33.90;;;15.40;;
38111;SDS011;64011;56.312;44.048;2024-01-30T03:54:20;34.45;;;16.30;;
38111;SDS011;64011;56.312;44.048;2024-01-30T03:56:21;32.15;;;15.02;;
38111;SDS011;64011;56.312;44.048;2024-01-30T03:58:23;30.65;;;14.18;;
38111;SDS011;64011;56.312;44.048;2024-01-30T04:00:24;27.30;;;11.68;;
38111;SDS011;64011;56.312;44.048;2024-01-30T04:02:25;32.08;;;12.63;;
38111;SDS011;64011;56.312;44.048;2024-01-30T04:04:26;33.25;;;14.95;;
38111;SDS011;64011;56.312;44.048;2024-01-30T04:06:26;29.45;;;13.30;;
38111;SDS011;64011;56.312;44.048;2024-01-30T04:08:27;32.70;;;14.23;;
38111;SDS011;64011;56.312;44.048;2024-01-30T04:10:28;30.83;;;12.82;;
38111;SDS011;64011;56.312;44.048;2024-01-30T04:12:29;29.52;;;12.40;;
38111;SDS011;64011;56.312;44.048;2024-01-30T04:14:31;31.67;;;15.82;;
38111;SDS011;64011;56.312;44.048;2024-01-30T04:16:32;28.83;;;12.27;;
38111;SDS011;64011;56.312;44.048;2024-01-30T04:18:33;30.33;;;14.32;;
38111;SDS011;64011;56.312;44.048;2024-01-30T04:20:33;31.65;;;14.05;;
38111;SDS011;64011;56.312;44.048;2024-01-30T04:22:34;34.75;;;15.88;;
38111;SDS011;64011;56.312;44.048;2024-01-30T04:24:35;34.05;;;15.35;;
38111;SDS011;64011;56.312;44.048;2024-01-30T04:26:36;32.15;;;14.57;;
38111;SDS011;64011;56.312;44.048;2024-01-30T04:28:37;33.33;;;15.73;;
38111;SDS011;64011;56.312;44.048;2024-01-30T04:30:39;30.73;;;14.52;;
38111;SDS011;64011;56.312;44.048;2024-01-30T04:32:40;32.22;;;15.73;;
38111;SDS011;64011;56.312;44.048;2024-01-30T04:34:41;30.55;;;14.07;;
38111;SDS011;64011;56.312;44.048;2024-01-30T04:36:43;33.88;;;13.13;;
38111;SDS011;64011;56.312;44.048;2024-01-30T04:38:44;30.80;;;13.68;;
38111;SDS011;64011;56.312;44.048;2024-01-30T04:40:45;31.95;;;15.10;;
38111;SDS011;64011;56.312;44.048;2024-01-30T04:42:46;28.95;;;12.55;;
38111;SDS011;64011;56.312;44.048;2024-01-30T04:44:47;29.13;;;11.23;;
38111;SDS011;64011;56.312;44.048;2024-01-30T04:46:49;29.52;;;12.95;;
38111;SDS011;64011;56.312;44.048;2024-01-30T04:48:50;28.92;;;12.82;;
38111;SDS011;64011;56.312;44.048;2024-01-30T04:50:51;29.77;;;13.88;;
38111;SDS011;64011;56.312;44.048;2024-01-30T04:52:52;28.73;;;12.63;;
38111;SDS011;64011;56.312;44.048;2024-01-30T04:54:53;29.00;;;12.30;;
38111;SDS011;64011;56.312;44.048;2024-01-30T04:56:53;32.58;;;14.52;;
38111;SDS011;64011;56.312;44.048;2024-01-30T04:58:54;28.17;;;12.00;;
38111;SDS011;64011;56.312;44.048;2024-01-30T05:00:55;30.58;;;13.85;;
38111;SDS011;64011;56.312;44.048;2024-01-30T05:02:57;27.33;;;12.00;;
38111;SDS011;64011;56.312;44.048;2024-01-30T05:04:58;29.02;;;12.07;;
38111;SDS011;64011;56.312;44.048;2024-01-30T05:06:59;27.85;;;11.57;;
38111;SDS011;64011;56.312;44.048;2024-01-30T05:09:00;28.38;;;12.52;;
38111;SDS011;64011;56.312;44.048;2024-01-30T05:11:01;29.25;;;12.77;;
38111;SDS011;64011;56.312;44.048;2024-01-30T05:13:02;29.33;;;12.73;;
38111;SDS011;64011;56.312;44.048;2024-01-30T05:15:03;30.20;;;13.20;;
38111;SDS011;64011;56.312;44.048;2024-01-30T05:17:05;27.25;;;12.02;;
38111;SDS011;64011;56.312;44.048;2024-01-30T05:19:07;29.13;;;12.25;;
38111;SDS011;64011;56.312;44.048;2024-01-30T05:21:08;27.20;;;12.48;;
38111;SDS011;64011;56.312;44.048;2024-01-30T05:23:08;29.25;;;12.55;;
38111;SDS011;64011;56.312;44.048;2024-01-30T05:25:09;31.70;;;13.48;;
38111;SDS011;64011;56.312;44.048;2024-01-30T05:27:10;26.10;;;11.05;;
38111;SDS011;64011;56.312;44.048;2024-01-30T05:29:11;30.25;;;11.93;;
38111;SDS011;64011;56.312;44.048;2024-01-30T05:31:12;29.05;;;12.85;;
38111;SDS011;64011;56.312;44.048;2024-01-30T05:33:13;29.35;;;11.05;;
38111;SDS011;64011;56.312;44.048;2024-01-30T05:35:15;26.35;;;12.10;;
38111;SDS011;64011;56.312;44.048;2024-01-30T05:37:16;27.98;;;13.15;;
38111;SDS011;64011;56.312;44.048;2024-01-30T05:39:17;29.15;;;13.32;;
38111;SDS011;64011;56.312;44.048;2024-01-30T05:41:18;28.50;;;12.73;;
38111;SDS011;64011;56.312;44.048;2024-01-30T05:43:19;21.80;;;9.85;;
38111;SDS011;64011;56.312;44.048;2024-01-30T05:45:20;28.60;;;13.13;;
38111;SDS011;64011;56.312;44.048;2024-01-30T05:47:21;29.38;;;13.35;;
38111;SDS011;64011;56.312;44.048;2024-01-30T05:49:22;28.60;;;11.07;;
38111;SDS011;64011;56.312;44.048;2024-01-30T05:51:24;31.00;;;12.80;;
38111;SDS011;64011;56.312;44.048;2024-01-30T05:53:25;26.35;;;11.35;;
38111;SDS011;64011;56.312;44.048;2024-01-30T05:55:26;24.05;;;10.57;;
38111;SDS011;64011;56.312;44.048;2024-01-30T05:57:27;27.23;;;11.88;;
38111;SDS011;64011;56.312;44.048;2024-01-30T05:59:28;27.55;;;12.10;;
38111;SDS011;64011;56.312;44.048;2024-01-30T06:01:28;25.80;;;11.55;;
38111;SDS011;64011;56.312;44.048;2024-01-30T06:03:29;29.55;;;12.73;;
38111;SDS011;64011;56.312;44.048;2024-01-30T06:05:30;25.48;;;11.95;;
38111;SDS011;64011;56.312;44.048;2024-01-30T06:07:32;28.50;;;12.30;;
38111;SDS011;64011;56.312;44.048;2024-01-30T06:09:33;27.60;;;13.00;;
38111;SDS011;64011;56.312;44.048;2024-01-30T06:11:34;28.23;;;12.02;;
38111;SDS011;64011;56.312;44.048;2024-01-30T06:13:35;27.02;;;12.18;;
38111;SDS011;64011;56.312;44.048;2024-01-30T06:15:36;26.95;;;12.38;;
38111;SDS011;64011;56.312;44.048;2024-01-30T06:17:37;30.00;;;11.55;;
38111;SDS011;64011;56.312;44.048;2024-01-30T06:19:38;27.70;;;11.80;;
38111;SDS011;64011;56.312;44.048;2024-01-30T06:21:38;30.00;;;11.90;;
38111;SDS011;64011;56.312;44.048;2024-01-30T06:23:41;26.35;;;11.35;;
38111;SDS011;64011;56.312;44.048;2024-01-30T06:25:42;24.67;;;10.48;;
38111;SDS011;64011;56.312;44.048;2024-01-30T06:27:42;26.52;;;11.07;;
38111;SDS011;64011;56.312;44.048;2024-01-30T06:29:43;24.55;;;11.60;;
38111;SDS011;64011;56.312;44.048;2024-01-30T06:31:44;25.67;;;11.73;;
38111;SDS011;64011;56.312;44.048;2024-01-30T06:33:46;29.98;;;13.02;;
38111;SDS011;64011;56.312;44.048;2024-01-30T06:35:47;25.75;;;11.55;;
38111;SDS011;64011;56.312;44.048;2024-01-30T06:37:48;27.13;;;11.73;;
38111;SDS011;64011;56.312;44.048;2024-01-30T06:39:50;26.75;;;11.80;;
38111;SDS011;64011;56.312;44.048;2024-01-30T06:41:51;25.75;;;11.70;;
38111;SDS011;64011;56.312;44.048;2024-01-30T06:43:52;29.48;;;11.68;;
38111;SDS011;64011;56.312;44.048;2024-01-30T06:45:52;27.52;;;11.35;;
38111;SDS011;64011;56.312;44.048;2024-01-30T06:47:54;26.05;;;11.18;;
38111;SDS011;64011;56.312;44.048;2024-01-30T06:49:55;26.13;;;10.40;;
38111;SDS011;64011;56.312;44.048;2024-01-30T06:51:56;29.92;;;10.52;;
38111;SDS011;64011;56.312;44.048;2024-01-30T06:53:57;30.65;;;11.15;;
38111;SDS011;64011;56.312;44.048;2024-01-30T06:55:59;27.10;;;11.93;;
38111;SDS011;64011;56.312;44.048;2024-01-30T06:58:00;28.40;;;12.10;;
38111;SDS011;64011;56.312;44.048;2024-01-30T07:00:01;26.30;;;11.73;;
38111;SDS011;64011;56.312;44.048;2024-01-30T07:02:05;32.15;;;12.30;;
38111;SDS011;64011;56.312;44.048;2024-01-30T07:04:06;28.40;;;10.40;;
38111;SDS011;64011;56.312;44.048;2024-01-30T07:06:07;27.85;;;10.77;;
38111;SDS011;64011;56.312;44.048;2024-01-30T07:08:08;26.23;;;10.90;;
38111;SDS011;64011;56.312;44.048;2024-01-30T07:10:09;27.58;;;10.80;;
38111;SDS011;64011;56.312;44.048;2024-01-30T07:12:11;30.45;;;11.77;;
38111;SDS011;64011;56.312;44.048;2024-01-30T07:14:12;25.77;;;10.68;;
38111;SDS011;64011;56.312;44.048;2024-01-30T07:16:13;22.95;;;10.32;;
38111;SDS011;64011;56.312;44.048;2024-01-30T07:18:13;25.30;;;10.13;;
38111;SDS011;64011;56.312;44.048;2024-01-30T07:20:15;26.83;;;11.07;;
38111;SDS011;64011;56.312;44.048;2024-01-30T07:22:16;28.27;;;11.57;;
38111;SDS011;64011;56.312;44.048;2024-01-30T07:24:17;24.40;;;10.77;;
38111;SDS011;64011;56.312;44.048;2024-01-30T07:26:18;28.23;;;10.80;;
38111;SDS011;64011;56.312;44.048;2024-01-30T07:28:20;25.80;;;10.88;;
38111;SDS011;64011;56.312;44.048;2024-01-30T07:30:21;24.77;;;10.25;;
38111;SDS011;64011;56.312;44.048;2024-01-30T07:32:23;25.35;;;11.60;;
38111;SDS011;64011;56.312;44.048;2024-01-30T07:34:24;27.30;;;10.70;;
38111;SDS011;64011;56.312;44.048;2024-01-30T07:36:25;27.40;;;11.35;;
38111;SDS011;64011;56.312;44.048;2024-01-30T07:38:26;25.48;;;11.80;;
38111;SDS011;64011;56.312;44.048;2024-01-30T07:40:26;28.15;;;11.95;;
38111;SDS011;64011;56.312;44.048;2024-01-30T07:42:27;31.60;;;12.40;;
38111;SDS011;64011;56.312;44.048;2024-01-30T07:44:29;24.35;;;11.13;;
38111;SDS011;64011;56.312;44.048;2024-01-30T07:46:30;24.45;;;11.80;;
38111;SDS011;64011;56.312;44.048;2024-01-30T07:48:31;32.85;;;14.55;;
38111;SDS011;64011;56.312;44.048;2024-01-30T07:50:32;24.48;;;11.73;;
38111;SDS011;64011;56.312;44.048;2024-01-30T07:52:33;30.40;;;13.52;;
38111;SDS011;64011;56.312;44.048;2024-01-30T07:54:34;29.08;;;12.88;;
38111;SDS011;64011;56.312;44.048;2024-01-30T07:56:35;27.25;;;12.93;;
38111;SDS011;64011;56.312;44.048;2024-01-30T07:58:36;25.33;;;10.77;;
38111;SDS011;64011;56.312;44.048;2024-01-30T08:00:39;25.60;;;10.82;;
38111;SDS011;64011;56.312;44.048;2024-01-30T08:02:39;27.48;;;11.68;;
38111;SDS011;64011;56.312;44.048;2024-01-30T08:04:40;29.83;;;12.63;;
38111;SDS011;64011;56.312;44.048;2024-01-30T08:06:41;28.35;;;12.85;;
38111;SDS011;64011;56.312;44.048;2024-01-30T08:08:42;28.05;;;12.18;;
38111;SDS011;64011;56.312;44.048;2024-01-30T08:10:43;29.02;;;12.18;;
38111;SDS011;64011;56.312;44.048;2024-01-30T08:12:44;27.40;;;11.15;;
38111;SDS011;64011;56.312;44.048;2024-01-30T08:14:45;29.55;;;11.93;;
38111;SDS011;64011;56.312;44.048;2024-01-30T08:16:47;27.63;;;11.90;;
38111;SDS011;64011;56.312;44.048;2024-01-30T08:18:48;31.40;;;11.68;;
38111;SDS011;64011;56.312;44.048;2024-01-30T08:20:48;27.38;;;13.00;;
38111;SDS011;64011;56.312;44.048;2024-01-30T08:22:49;29.05;;;11.65;;
38111;SDS011;64011;56.312;44.048;2024-01-30T08:24:50;28.60;;;12.65;;
38111;SDS011;64011;56.312;44.048;2024-01-30T08:26:51;25.35;;;10.65;;
38111;SDS011;64011;56.312;44.048;2024-01-30T08:28:52;30.08;;;11.50;;
38111;SDS011;64011;56.312;44.048;2024-01-30T08:30:52;25.48;;;11.52;;
38111;SDS011;64011;56.312;44.048;2024-01-30T08:32:55;26.27;;;10.98;;
38111;SDS011;64011;56.312;44.048;2024-01-30T08:34:56;26.98;;;11.40;;
38111;SDS011;64011;56.312;44.048;2024-01-30T08:36:56;26.63;;;12.25;;
38111;SDS011;64011;56.312;44.048;2024-01-30T08:38:57;26.67;;;12.68;;
38111;SDS011;64011;56.312;44.048;2024-01-30T08:40:58;26.20;;;11.15;;
38111;SDS011;64011;56.312;44.048;2024-01-30T08:42:59;26.90;;;11.50;;
38111;SDS011;64011;56.312;44.048;2024-01-30T08:45:00;47.03;;;23.23;;
38111;SDS011;64011;56.312;44.048;2024-01-30T08:47:01;26.13;;;11.25;;
38111;SDS011;64011;56.312;44.048;2024-01-30T08:49:03;30.27;;;13.00;;
38111;SDS011;64011;56.312;44.048;2024-01-30T08:51:04;29.73;;;12.93;;
38111;SDS011;64011;56.312;44.048;2024-01-30T08:53:05;32.80;;;13.45;;
38111;SDS011;64011;56.312;44.048;2024-01-30T08:55:06;28.00;;;11.27;;
38111;SDS011;64011;56.312;44.048;2024-01-30T08:57:07;29.38;;;13.15;;
38111;SDS011;64011;56.312;44.048;2024-01-30T08:59:08;29.25;;;14.93;;
38111;SDS011;64011;56.312;44.048;2024-01-30T09:01:09;29.30;;;13.65;;
38111;SDS011;64011;56.312;44.048;2024-01-30T09:03:10;33.85;;;13.25;;
38111;SDS011;64011;56.312;44.048;2024-01-30T09:05:12;27.15;;;11.95;;
38111;SDS011;64011;56.312;44.048;2024-01-30T09:07:13;32.72;;;12.32;;
38111;SDS011;64011;56.312;44.048;2024-01-30T09:09:14;29.67;;;12.43;;
38111;SDS011;64011;56.312;44.048;2024-01-30T09:11:15;26.98;;;11.85;;
38111;SDS011;64011;56.312;44.048;2024-01-30T09:13:16;28.45;;;12.32;;
38111;SDS011;64011;56.312;44.048;2024-01-30T09:15:17;27.95;;;12.90;;
38111;SDS011;64011;56.312;44.048;2024-01-30T09:17:18;27.35;;;13.18;;
38111;SDS011;64011;56.312;44.048;2024-01-30T09:19:19;28.67;;;12.00;;
38111;SDS011;64011;56.312;44.048;2024-01-30T09:21:21;25.25;;;10.90;;
38111;SDS011;64011;56.312;44.048;2024-01-30T09:23:22;28.42;;;12.10;;
38111;SDS011;64011;56.312;44.048;2024-01-30T09:25:23;24.02;;;10.88;;
38111;SDS011;64011;56.312;44.048;2024-01-30T09:27:23;26.85;;;11.65;;
38111;SDS011;64011;56.312;44.048;2024-01-30T09:29:24;27.85;;;10.77;;
38111;SDS011;64011;56.312;44.048;2024-01-30T09:31:25;25.27;;;11.27;;
38111;SDS011;64011;56.312;44.048;2024-01-30T09:33:26;27.20;;;11.50;;
38111;SDS011;64011;56.312;44.048;2024-01-30T09:35:27;25.00;;;10.82;;
38111;SDS011;64011;56.312;44.048;2024-01-30T09:37:29;25.60;;;10.60;;
38111;SDS011;64011;56.312;44.048;2024-01-30T09:39:30;23.38;;;10.55;;
38111;SDS011;64011;56.312;44.048;2024-01-30T09:41:31;28.33;;;11.32;;
38111;SDS011;64011;56.312;44.048;2024-01-30T09:43:33;26.45;;;11.25;;
38111;SDS011;64011;56.312;44.048;2024-01-30T09:45:33;24.98;;;11.27;;
38111;SDS011;64011;56.312;44.048;2024-01-30T09:47:38;28.20;;;11.77;;
38111;SDS011;64011;56.312;44.048;2024-01-30T09:49:40;25.00;;;10.57;;
38111;SDS011;64011;56.312;44.048;2024-01-30T09:51:43;27.50;;;10.95;;
38111;SDS011;64011;56.312;44.048;2024-01-30T09:53:46;24.63;;;10.27;;
38111;SDS011;64011;56.312;44.048;2024-01-30T09:55:47;24.60;;;9.85;;
38111;SDS011;64011;56.312;44.048;2024-01-30T09:57:50;23.60;;;9.60;;
38111;SDS011;64011;56.312;44.048;2024-01-30T09:59:51;22.80;;;9.70;;
38111;SDS011;64011;56.312;44.048;2024-01-30T10:01:52;21.80;;;9.07;;
38111;SDS011;64011;56.312;44.048;2024-01-30T10:03:53;24.17;;;9.20;;
38111;SDS011;64011;56.312;44.048;2024-01-30T10:05:54;22.52;;;9.18;;
38111;SDS011;64011;56.312;44.048;2024-01-30T10:07:56;23.25;;;9.35;;
38111;SDS011;64011;56.312;44.048;2024-01-30T10:09:58;24.15;;;9.10;;
38111;SDS011;64011;56.312;44.048;2024-01-30T10:11:59;27.70;;;10.52;;
38111;SDS011;64011;56.312;44.048;2024-01-30T10:14:00;24.25;;;10.27;;
38111;SDS011;64011;56.312;44.048;2024-01-30T10:16:01;21.88;;;8.25;;
38111;SDS011;64011;56.312;44.048;2024-01-30T10:18:02;20.90;;;8.52;;
38111;SDS011;64011;56.312;44.048;2024-01-30T10:20:04;23.65;;;8.75;;
38111;SDS011;64011;56.312;44.048;2024-01-30T10:22:06;21.20;;;8.50;;
38111;SDS011;64011;56.312;44.048;2024-01-30T10:24:07;22.52;;;7.80;;
38111;SDS011;64011;56.312;44.048;2024-01-30T10:26:09;23.00;;;8.60;;
38111;SDS011;64011;56.312;44.048;2024-01-30T10:28:11;22.88;;;8.27;;
38111;SDS011;64011;56.312;44.048;2024-01-30T10:30:12;23.38;;;7.72;;
38111;SDS011;64011;56.312;44.048;2024-01-30T10:32:12;17.65;;;7.20;;
38111;SDS011;64011;56.312;44.048;2024-01-30T10:34:13;20.17;;;7.32;;
38111;SDS011;64011;56.312;44.048;2024-01-30T10:36:14;18.02;;;6.80;;
38111;SDS011;64011;56.312;44.048;2024-01-30T10:38:17;18.90;;;7.55;;
38111;SDS011;64011;56.312;44.048;2024-01-30T10:40:19;19.60;;;7.07;;
38111;SDS011;64011;56.312;44.048;2024-01-30T10:42:25;16.90;;;7.00;;
38111;SDS011;64011;56.312;44.048;2024-01-30T10:44:26;19.77;;;7.28;;
38111;SDS011;64011;56.312;44.048;2024-01-30T10:46:31;19.85;;;6.82;;
38111;SDS011;64011;56.312;44.048;2024-01-30T10:48:32;17.73;;;6.75;;
38111;SDS011;64011;56.312;44.048;2024-01-30T10:50:37;22.02;;;7.63;;
38111;SDS011;64011;56.312;44.048;2024-01-30T10:52:39;19.40;;;7.38;;
38111;SDS011;64011;56.312;44.048;2024-01-30T10:54:40;19.13;;;6.80;;
38111;SDS011;64011;56.312;44.048;2024-01-30T10:56:41;15.15;;;6.05;;
38111;SDS011;64011;56.312;44.048;2024-01-30T10:58:44;18.65;;;6.85;;
38111;SDS011;64011;56.312;44.048;2024-01-30T11:00:46;19.75;;;7.10;;
38111;SDS011;64011;56.312;44.048;2024-01-30T11:02:47;15.90;;;6.40;;
38111;SDS011;64011;56.312;44.048;2024-01-30T11:04:48;21.80;;;6.60;;
38111;SDS011;64011;56.312;44.048;2024-01-30T11:06:49;20.33;;;7.30;;
38111;SDS011;64011;56.312;44.048;2024-01-30T11:08:59;17.75;;;6.20;;
38111;SDS011;64011;56.312;44.048;2024-01-30T11:11:01;17.98;;;6.55;;
38111;SDS011;64011;56.312;44.048;2024-01-30T11:13:09;18.30;;;6.28;;
38111;SDS011;64011;56.312;44.048;2024-01-30T11:15:12;17.08;;;6.10;;
38111;SDS011;64011;56.312;44.048;2024-01-30T11:17:13;19.52;;;6.32;;
38111;SDS011;64011;56.312;44.048;2024-01-30T11:19:14;24.23;;;7.13;;
38111;SDS011;64011;56.312;44.048;2024-01-30T11:21:15;18.73;;;6.78;;
38111;SDS011;64011;56.312;44.048;2024-01-30T11:23:16;18.73;;;6.03;;
38111;SDS011;64011;56.312;44.048;2024-01-30T11:25:17;19.25;;;6.97;;
38111;SDS011;64011;56.312;44.048;2024-01-30T11:27:20;19.58;;;6.15;;
38111;SDS011;64011;56.312;44.048;2024-01-30T11:29:24;18.05;;;6.07;;
38111;SDS011;64011;56.312;44.048;2024-01-30T11:31:26;21.35;;;6.45;;
38111;SDS011;64011;56.312;44.048;2024-01-30T11:33:27;18.95;;;6.90;;
38111;SDS011;64011;56.312;44.048;2024-01-30T11:35:29;18.17;;;5.97;;
38111;SDS011;64011;56.312;44.048;2024-01-30T11:37:32;18.13;;;5.75;;
38111;SDS011;64011;56.312;44.048;2024-01-30T11:39:33;18.55;;;5.90;;
38111;SDS011;64011;56.312;44.048;2024-01-30T11:41:34;17.92;;;6.38;;
38111;SDS011;64011;56.312;44.048;2024-01-30T11:43:34;16.73;;;5.30;;